Terminal Aerodrome Forecast
Issued by NWS

Home | Current Version | Previous Version | Graphics & Text | Print | Product List | Glossary On
Versions: 1 2 3 4 5 6 7 8 9 10 11 12 13 14 15 16 17
000
FTUS43 KABR 291724
TAFPIR
TAF
KPIR 291724Z 2918/3018 30006KT P6SM SKC
     FM292100 35009KT P6SM SKC
     FM300200 05005KT P6SM SKC
     FM300500 10005KT P6SM SKC=

USA.gov is the U.S. government's official web portal to all federal, state and local government web resources and services.